sensor_id;sensor_type;location;lat;lon;timestamp;pressure;altitude;pressure_sealevel;temperature;humidity
57000;BME280;42891;50.006;21.964;2023-12-14T00:01:05;51251.16;;;-146.02;85.71
57000;BME280;42891;50.006;21.964;2023-12-14T00:05:10;51255.16;;;-146.02;86.20
57000;BME280;42891;50.006;21.964;2023-12-14T00:09:11;51259.19;;;-146.02;86.00
57000;BME280;42891;50.006;21.964;2023-12-14T00:13:11;51269.19;;;-146.02;86.39
57000;BME280;42891;50.006;21.964;2023-12-14T00:17:12;51247.16;;;-146.02;86.46
57000;BME280;42891;50.006;21.964;2023-12-14T00:21:12;51257.19;;;-146.02;86.35
57000;BME280;42891;50.006;21.964;2023-12-14T00:25:12;51249.16;;;-146.02;86.06
57000;BME280;42891;50.006;21.964;2023-12-14T00:29:13;51239.13;;;-146.02;86.55
57000;BME280;42891;50.006;21.964;2023-12-14T00:33:13;51309.28;;;-146.02;86.38
57000;BME280;42891;50.006;21.964;2023-12-14T00:37:13;51277.22;;;-146.02;86.45
57000;BME280;42891;50.006;21.964;2023-12-14T00:41:14;51255.16;;;-146.02;86.46
57000;BME280;42891;50.006;21.964;2023-12-14T00:45:14;51289.25;;;-146.02;86.38
57000;BME280;42891;50.006;21.964;2023-12-14T00:49:15;51297.25;;;-146.02;85.99
57000;BME280;42891;50.006;21.964;2023-12-14T00:53:18;51251.16;;;-146.02;86.04
57000;BME280;42891;50.006;21.964;2023-12-14T00:57:18;51277.22;;;-146.02;86.09
57000;BME280;42891;50.006;21.964;2023-12-14T01:01:18;51263.19;;;-146.02;86.06
57000;BME280;42891;50.006;21.964;2023-12-14T01:05:19;51261.19;;;-146.02;85.76
57000;BME280;42891;50.006;21.964;2023-12-14T01:09:19;51255.16;;;-146.02;85.99
57000;BME280;42891;50.006;21.964;2023-12-14T01:13:19;51265.19;;;-146.02;85.96
57000;BME280;42891;50.006;21.964;2023-12-14T01:17:19;51269.19;;;-146.02;85.75
57000;BME280;42891;50.006;21.964;2023-12-14T01:21:20;51253.16;;;-146.02;85.65
57000;BME280;42891;50.006;21.964;2023-12-14T01:25:20;51263.19;;;-146.02;85.52
57000;BME280;42891;50.006;21.964;2023-12-14T01:29:20;51267.19;;;-146.02;86.06
57000;BME280;42891;50.006;21.964;2023-12-14T01:33:21;51307.28;;;-146.02;86.75
57000;BME280;42891;50.006;21.964;2023-12-14T01:37:21;51253.16;;;-146.02;85.98
57000;BME280;42891;50.006;21.964;2023-12-14T01:41:21;51273.22;;;-146.02;86.21
57000;BME280;42891;50.006;21.964;2023-12-14T01:45:22;51267.19;;;-146.02;86.22
57000;BME280;42891;50.006;21.964;2023-12-14T01:49:22;51253.16;;;-146.02;86.41
57000;BME280;42891;50.006;21.964;2023-12-14T01:53:22;51293.25;;;-146.02;86.20
57000;BME280;42891;50.006;21.964;2023-12-14T01:57:23;51281.22;;;-146.02;86.63
57000;BME280;42891;50.006;21.964;2023-12-14T02:05:28;51259.19;;;-146.02;86.25
57000;BME280;42891;50.006;21.964;2023-12-14T02:09:28;51311.28;;;-146.02;86.07
57000;BME280;42891;50.006;21.964;2023-12-14T02:13:29;51275.22;;;-146.02;85.96
57000;BME280;42891;50.006;21.964;2023-12-14T02:17:29;51237.13;;;-146.02;86.11
57000;BME280;42891;50.006;21.964;2023-12-14T02:21:29;51281.22;;;-146.02;86.11
57000;BME280;42891;50.006;21.964;2023-12-14T02:25:30;51259.19;;;-146.02;85.97
57000;BME280;42891;50.006;21.964;2023-12-14T02:29:30;51279.22;;;-146.02;85.78
57000;BME280;42891;50.006;21.964;2023-12-14T02:33:31;51247.16;;;-146.02;85.71
57000;BME280;42891;50.006;21.964;2023-12-14T02:37:32;51279.22;;;-146.02;85.60
57000;BME280;42891;50.006;21.964;2023-12-14T02:41:32;51265.19;;;-146.02;85.84
57000;BME280;42891;50.006;21.964;2023-12-14T02:45:33;51291.25;;;-146.02;85.81
57000;BME280;42891;50.006;21.964;2023-12-14T02:49:34;51253.16;;;-146.02;85.65
57000;BME280;42891;50.006;21.964;2023-12-14T02:53:35;51253.16;;;-146.02;85.57
57000;BME280;42891;50.006;21.964;2023-12-14T02:57:35;51283.22;;;-146.02;86.16
57000;BME280;42891;50.006;21.964;2023-12-14T03:01:35;51273.22;;;-146.02;86.16
57000;BME280;42891;50.006;21.964;2023-12-14T03:05:36;51265.19;;;-146.02;86.44
57000;BME280;42891;50.006;21.964;2023-12-14T03:09:39;51305.28;;;-146.02;86.50
57000;BME280;42891;50.006;21.964;2023-12-14T03:13:41;51261.19;;;-146.02;85.81
57000;BME280;42891;50.006;21.964;2023-12-14T03:17:41;51297.25;;;-146.02;85.95
57000;BME280;42891;50.006;21.964;2023-12-14T03:21:42;51267.19;;;-146.02;85.73
57000;BME280;42891;50.006;21.964;2023-12-14T03:25:43;51263.19;;;-146.02;85.96
57000;BME280;42891;50.006;21.964;2023-12-14T03:29:43;51301.25;;;-146.02;85.63
57000;BME280;42891;50.006;21.964;2023-12-14T03:33:43;51297.25;;;-146.02;86.33
57000;BME280;42891;50.006;21.964;2023-12-14T03:37:44;51289.25;;;-146.02;86.95
57000;BME280;42891;50.006;21.964;2023-12-14T03:41:44;51267.19;;;-146.02;87.25
57000;BME280;42891;50.006;21.964;2023-12-14T03:45:45;51261.19;;;-146.02;86.65
57000;BME280;42891;50.006;21.964;2023-12-14T03:49:45;51309.28;;;-146.02;86.62
57000;BME280;42891;50.006;21.964;2023-12-14T03:53:45;51285.22;;;-146.02;86.30
57000;BME280;42891;50.006;21.964;2023-12-14T03:57:46;51257.19;;;-146.02;86.00
57000;BME280;42891;50.006;21.964;2023-12-14T04:01:46;51305.28;;;-146.02;85.29
57000;BME280;42891;50.006;21.964;2023-12-14T04:05:46;51273.22;;;-146.02;84.85
57000;BME280;42891;50.006;21.964;2023-12-14T04:09:47;51295.25;;;-146.02;84.97
57000;BME280;42891;50.006;21.964;2023-12-14T04:13:48;51257.19;;;-146.02;85.04
57000;BME280;42891;50.006;21.964;2023-12-14T04:17:50;51257.19;;;-146.02;84.71
57000;BME280;42891;50.006;21.964;2023-12-14T04:21:51;51277.22;;;-146.02;84.25
57000;BME280;42891;50.006;21.964;2023-12-14T04:25:51;51293.25;;;-146.02;84.69
57000;BME280;42891;50.006;21.964;2023-12-14T04:29:51;51241.16;;;-146.02;84.25
57000;BME280;42891;50.006;21.964;2023-12-14T04:33:51;51275.22;;;-146.02;84.21
57000;BME280;42891;50.006;21.964;2023-12-14T04:37:52;51283.22;;;-146.02;83.95
57000;BME280;42891;50.006;21.964;2023-12-14T04:41:53;51295.25;;;-146.02;83.95
57000;BME280;42891;50.006;21.964;2023-12-14T04:45:53;51281.22;;;-146.02;84.18
57000;BME280;42891;50.006;21.964;2023-12-14T04:49:53;51279.22;;;-146.02;84.42
57000;BME280;42891;50.006;21.964;2023-12-14T04:53:53;51253.16;;;-146.02;84.41
57000;BME280;42891;50.006;21.964;2023-12-14T04:57:54;51249.16;;;-146.02;84.31
57000;BME280;42891;50.006;21.964;2023-12-14T05:01:54;51255.16;;;-146.02;83.99
57000;BME280;42891;50.006;21.964;2023-12-14T05:05:54;51235.13;;;-146.02;84.04
57000;BME280;42891;50.006;21.964;2023-12-14T05:09:55;51265.19;;;-146.02;84.26
57000;BME280;42891;50.006;21.964;2023-12-14T05:13:55;51281.22;;;-146.02;83.98
57000;BME280;42891;50.006;21.964;2023-12-14T05:17:55;51259.19;;;-146.02;84.42
57000;BME280;42891;50.006;21.964;2023-12-14T05:21:56;51305.28;;;-146.02;84.56
57000;BME280;42891;50.006;21.964;2023-12-14T05:25:56;51259.19;;;-146.02;83.91
57000;BME280;42891;50.006;21.964;2023-12-14T05:29:56;51299.25;;;-146.02;84.06
57000;BME280;42891;50.006;21.964;2023-12-14T05:33:56;51299.25;;;-146.02;84.12
57000;BME280;42891;50.006;21.964;2023-12-14T05:37:57;51281.22;;;-146.02;84.21
57000;BME280;42891;50.006;21.964;2023-12-14T05:41:57;51249.16;;;-146.02;84.64
57000;BME280;42891;50.006;21.964;2023-12-14T05:45:57;51281.22;;;-146.02;85.12
57000;BME280;42891;50.006;21.964;2023-12-14T05:49:58;51239.13;;;-146.02;85.28
57000;BME280;42891;50.006;21.964;2023-12-14T05:53:59;51289.25;;;-146.02;85.27
57000;BME280;42891;50.006;21.964;2023-12-14T05:57:59;51259.19;;;-146.02;84.95
57000;BME280;42891;50.006;21.964;2023-12-14T06:02:00;51281.22;;;-146.02;85.00
57000;BME280;42891;50.006;21.964;2023-12-14T06:06:00;51267.19;;;-146.02;84.61
57000;BME280;42891;50.006;21.964;2023-12-14T06:10:01;51305.28;;;-146.02;84.82
57000;BME280;42891;50.006;21.964;2023-12-14T06:14:01;51303.25;;;-146.02;84.71
57000;BME280;42891;50.006;21.964;2023-12-14T06:18:01;51321.31;;;-146.02;84.55
57000;BME280;42891;50.006;21.964;2023-12-14T06:22:02;51249.16;;;-146.02;84.78
57000;BME280;42891;50.006;21.964;2023-12-14T06:26:03;51279.22;;;-146.02;84.66
57000;BME280;42891;50.006;21.964;2023-12-14T06:30:04;51251.16;;;-146.02;84.40
57000;BME280;42891;50.006;21.964;2023-12-14T06:34:08;51287.22;;;-146.02;84.29
57000;BME280;42891;50.006;21.964;2023-12-14T06:38:08;51273.22;;;-146.02;84.42
57000;BME280;42891;50.006;21.964;2023-12-14T06:42:08;51297.25;;;-146.02;84.17
57000;BME280;42891;50.006;21.964;2023-12-14T06:46:08;51251.16;;;-146.02;84.53
57000;BME280;42891;50.006;21.964;2023-12-14T06:50:09;51291.25;;;-146.02;84.36
57000;BME280;42891;50.006;21.964;2023-12-14T06:54:10;51265.19;;;-146.02;84.01
57000;BME280;42891;50.006;21.964;2023-12-14T06:58:10;51281.22;;;-146.02;83.83
57000;BME280;42891;50.006;21.964;2023-12-14T07:02:11;51301.25;;;-146.02;83.36
57000;BME280;42891;50.006;21.964;2023-12-14T07:06:13;51257.19;;;-146.02;83.15
57000;BME280;42891;50.006;21.964;2023-12-14T07:10:14;51293.25;;;-146.02;82.90
57000;BME280;42891;50.006;21.964;2023-12-14T07:14:14;51267.19;;;-146.02;82.45
57000;BME280;42891;50.006;21.964;2023-12-14T07:18:15;51247.16;;;-146.02;82.55
57000;BME280;42891;50.006;21.964;2023-12-14T07:22:15;51247.16;;;-146.02;82.36
57000;BME280;42891;50.006;21.964;2023-12-14T07:26:15;51241.16;;;-146.02;82.39
57000;BME280;42891;50.006;21.964;2023-12-14T07:30:16;51275.22;;;-146.02;82.14
57000;BME280;42891;50.006;21.964;2023-12-14T07:34:16;51297.25;;;-146.02;82.15
57000;BME280;42891;50.006;21.964;2023-12-14T07:38:16;51305.28;;;-146.02;81.85
57000;BME280;42891;50.006;21.964;2023-12-14T07:42:17;51289.25;;;-146.02;81.79
57000;BME280;42891;50.006;21.964;2023-12-14T07:46:20;51245.16;;;-146.02;82.07
57000;BME280;42891;50.006;21.964;2023-12-14T07:50:20;51317.28;;;-146.02;82.03
57000;BME280;42891;50.006;21.964;2023-12-14T07:54:21;51257.19;;;-146.02;82.52
57000;BME280;42891;50.006;21.964;2023-12-14T07:58:22;51289.25;;;-146.02;82.12
57000;BME280;42891;50.006;21.964;2023-12-14T08:02:22;51263.19;;;-146.02;82.15
57000;BME280;42891;50.006;21.964;2023-12-14T08:06:23;51279.22;;;-146.02;82.13
57000;BME280;42891;50.006;21.964;2023-12-14T08:10:23;51299.25;;;-146.02;82.17
57000;BME280;42891;50.006;21.964;2023-12-14T08:14:23;51303.25;;;-146.02;82.07
57000;BME280;42891;50.006;21.964;2023-12-14T08:18:23;51257.19;;;-146.02;82.23
57000;BME280;42891;50.006;21.964;2023-12-14T08:22:24;51275.22;;;-146.02;82.12
57000;BME280;42891;50.006;21.964;2023-12-14T08:26:24;51275.22;;;-146.02;81.88
57000;BME280;42891;50.006;21.964;2023-12-14T08:30:24;51259.19;;;-146.02;81.87
57000;BME280;42891;50.006;21.964;2023-12-14T08:34:26;51255.16;;;-146.02;81.84
57000;BME280;42891;50.006;21.964;2023-12-14T08:38:26;51273.22;;;-146.02;82.07
57000;BME280;42891;50.006;21.964;2023-12-14T08:42:27;51271.19;;;-146.02;82.07
57000;BME280;42891;50.006;21.964;2023-12-14T08:46:27;51297.25;;;-146.02;82.31
57000;BME280;42891;50.006;21.964;2023-12-14T08:50:27;51297.25;;;-146.02;82.02
57000;BME280;42891;50.006;21.964;2023-12-14T08:54:27;51235.13;;;-146.02;81.73
57000;BME280;42891;50.006;21.964;2023-12-14T08:58:28;51253.16;;;-146.02;82.08
57000;BME280;42891;50.006;21.964;2023-12-14T09:02:29;51255.16;;;-146.02;82.33
57000;BME280;42891;50.006;21.964;2023-12-14T09:06:29;51271.19;;;-146.02;82.16
57000;BME280;42891;50.006;21.964;2023-12-14T09:10:30;51277.22;;;-146.02;82.07
57000;BME280;42891;50.006;21.964;2023-12-14T09:14:30;51255.16;;;-146.02;82.45
57000;BME280;42891;50.006;21.964;2023-12-14T09:18:32;51245.16;;;-146.02;82.70
57000;BME280;42891;50.006;21.964;2023-12-14T09:22:32;51285.22;;;-146.02;82.87
57000;BME280;42891;50.006;21.964;2023-12-14T09:26:32;51249.16;;;-146.02;83.26
57000;BME280;42891;50.006;21.964;2023-12-14T09:30:33;51279.22;;;-146.02;83.46
57000;BME280;42891;50.006;21.964;2023-12-14T09:34:33;51269.19;;;-146.02;83.63
57000;BME280;42891;50.006;21.964;2023-12-14T09:38:34;51297.25;;;-146.02;83.77
57000;BME280;42891;50.006;21.964;2023-12-14T09:42:38;51275.22;;;-146.02;83.65
57000;BME280;42891;50.006;21.964;2023-12-14T09:46:39;51273.22;;;-146.02;83.31
57000;BME280;42891;50.006;21.964;2023-12-14T09:50:41;51253.16;;;-146.02;83.51
57000;BME280;42891;50.006;21.964;2023-12-14T09:54:42;51275.22;;;-146.02;83.15
57000;BME280;42891;50.006;21.964;2023-12-14T09:58:43;51315.28;;;-146.02;83.03
57000;BME280;42891;50.006;21.964;2023-12-14T10:02:43;51249.16;;;-146.02;82.61
57000;BME280;42891;50.006;21.964;2023-12-14T10:06:45;51269.19;;;-146.02;82.56
57000;BME280;42891;50.006;21.964;2023-12-14T10:10:48;51281.22;;;-146.02;82.72
57000;BME280;42891;50.006;21.964;2023-12-14T10:15:00;51271.19;;;-146.02;82.62
57000;BME280;42891;50.006;21.964;2023-12-14T10:19:01;51281.22;;;-146.02;82.40
57000;BME280;42891;50.006;21.964;2023-12-14T10:23:03;51269.19;;;-146.02;82.25
57000;BME280;42891;50.006;21.964;2023-12-14T10:27:07;51293.25;;;-146.02;82.01
57000;BME280;42891;50.006;21.964;2023-12-14T10:31:08;51287.22;;;-146.02;81.81
57000;BME280;42891;50.006;21.964;2023-12-14T10:35:10;51251.16;;;-146.02;81.97
57000;BME280;42891;50.006;21.964;2023-12-14T10:39:14;51297.25;;;-146.02;82.41
57000;BME280;42891;50.006;21.964;2023-12-14T10:43:16;51241.16;;;-146.02;82.34
57000;BME280;42891;50.006;21.964;2023-12-14T10:47:16;51269.19;;;-146.02;82.36
57000;BME280;42891;50.006;21.964;2023-12-14T10:51:20;51245.16;;;-146.02;82.59
57000;BME280;42891;50.006;21.964;2023-12-14T10:55:33;51259.19;;;-146.02;82.20
57000;BME280;42891;50.006;21.964;2023-12-14T10:59:34;51301.25;;;-146.02;81.91
57000;BME280;42891;50.006;21.964;2023-12-14T11:03:36;51285.22;;;-146.02;81.71
57000;BME280;42891;50.006;21.964;2023-12-14T11:08:01;51265.19;;;-146.02;82.09
57000;BME280;42891;50.006;21.964;2023-12-14T11:12:03;51303.25;;;-146.02;81.96
57000;BME280;42891;50.006;21.964;2023-12-14T11:16:08;51277.22;;;-146.02;82.23
57000;BME280;42891;50.006;21.964;2023-12-14T11:20:24;51265.19;;;-146.02;82.66
57000;BME280;42891;50.006;21.964;2023-12-14T11:24:24;51245.16;;;-146.02;82.20
57000;BME280;42891;50.006;21.964;2023-12-14T11:28:26;51295.25;;;-146.02;82.10
57000;BME280;42891;50.006;21.964;2023-12-14T11:32:27;51267.19;;;-146.02;82.15
57000;BME280;42891;50.006;21.964;2023-12-14T11:36:27;51265.19;;;-146.02;81.92
57000;BME280;42891;50.006;21.964;2023-12-14T11:40:28;51263.19;;;-146.02;82.10
57000;BME280;42891;50.006;21.964;2023-12-14T11:44:29;51239.13;;;-146.02;81.89
57000;BME280;42891;50.006;21.964;2023-12-14T11:48:30;51273.22;;;-146.02;81.65
57000;BME280;42891;50.006;21.964;2023-12-14T11:52:31;51235.13;;;-146.02;81.30
57000;BME280;42891;50.006;21.964;2023-12-14T11:56:34;51281.22;;;-146.02;81.45
57000;BME280;42891;50.006;21.964;2023-12-14T12:00:35;51245.16;;;-146.02;81.90
57000;BME280;42891;50.006;21.964;2023-12-14T12:04:49;51265.19;;;-146.02;82.36
57000;BME280;42891;50.006;21.964;2023-12-14T12:08:51;51263.19;;;-146.02;82.96
57000;BME280;42891;50.006;21.964;2023-12-14T12:13:00;51281.22;;;-146.02;83.13
57000;BME280;42891;50.006;21.964;2023-12-14T12:17:01;51253.16;;;-146.02;83.17
57000;BME280;42891;50.006;21.964;2023-12-14T12:21:01;51277.22;;;-146.02;83.23
57000;BME280;42891;50.006;21.964;2023-12-14T12:25:05;51273.22;;;-146.02;83.11
57000;BME280;42891;50.006;21.964;2023-12-14T12:29:05;51259.19;;;-146.02;82.91
57000;BME280;42891;50.006;21.964;2023-12-14T12:33:06;51267.19;;;-146.02;83.11
57000;BME280;42891;50.006;21.964;2023-12-14T12:37:06;51269.19;;;-146.02;83.15
57000;BME280;42891;50.006;21.964;2023-12-14T12:41:07;51297.25;;;-146.02;83.35
57000;BME280;42891;50.006;21.964;2023-12-14T12:45:07;51287.22;;;-146.02;83.37
57000;BME280;42891;50.006;21.964;2023-12-14T12:49:08;51259.19;;;-146.02;83.22
57000;BME280;42891;50.006;21.964;2023-12-14T12:53:08;51269.19;;;-146.02;83.24
57000;BME280;42891;50.006;21.964;2023-12-14T12:57:09;51269.19;;;-146.02;83.20
57000;BME280;42891;50.006;21.964;2023-12-14T13:01:09;51247.16;;;-146.02;83.50
57000;BME280;42891;50.006;21.964;2023-12-14T13:05:10;51281.22;;;-146.02;83.45
57000;BME280;42891;50.006;21.964;2023-12-14T13:09:10;51261.19;;;-146.02;83.19
57000;BME280;42891;50.006;21.964;2023-12-14T13:13:11;51277.22;;;-146.02;83.28
57000;BME280;42891;50.006;21.964;2023-12-14T13:17:12;51277.22;;;-146.02;83.11
57000;BME280;42891;50.006;21.964;2023-12-14T13:21:13;51263.19;;;-146.02;82.63
57000;BME280;42891;50.006;21.964;2023-12-14T13:25:13;51283.22;;;-146.02;82.68
57000;BME280;42891;50.006;21.964;2023-12-14T13:29:14;51271.19;;;-146.02;82.58
57000;BME280;42891;50.006;21.964;2023-12-14T13:33:14;51289.25;;;-146.02;83.05
57000;BME280;42891;50.006;21.964;2023-12-14T13:37:15;51251.16;;;-146.02;82.83
57000;BME280;42891;50.006;21.964;2023-12-14T13:41:15;51261.19;;;-146.02;82.96
57000;BME280;42891;50.006;21.964;2023-12-14T13:45:15;51261.19;;;-146.02;83.09
57000;BME280;42891;50.006;21.964;2023-12-14T13:49:15;51285.22;;;-146.02;83.18
57000;BME280;42891;50.006;21.964;2023-12-14T13:53:16;51241.16;;;-146.02;82.87
57000;BME280;42891;50.006;21.964;2023-12-14T13:57:16;51251.16;;;-146.02;83.05
57000;BME280;42891;50.006;21.964;2023-12-14T14:01:16;51305.28;;;-146.02;82.77
57000;BME280;42891;50.006;21.964;2023-12-14T14:05:17;51275.22;;;-146.02;82.88
57000;BME280;42891;50.006;21.964;2023-12-14T14:09:17;51233.13;;;-146.02;82.55
57000;BME280;42891;50.006;21.964;2023-12-14T14:13:18;51259.19;;;-146.02;82.48
57000;BME280;42891;50.006;21.964;2023-12-14T14:17:18;51263.19;;;-146.02;82.63
57000;BME280;42891;50.006;21.964;2023-12-14T14:21:18;51285.22;;;-146.02;82.66
57000;BME280;42891;50.006;21.964;2023-12-14T14:25:18;51291.25;;;-146.02;82.73
57000;BME280;42891;50.006;21.964;2023-12-14T14:29:19;51255.16;;;-146.02;82.47
57000;BME280;42891;50.006;21.964;2023-12-14T14:33:19;51255.16;;;-146.02;82.42
57000;BME280;42891;50.006;21.964;2023-12-14T14:37:20;51255.16;;;-146.02;82.49
57000;BME280;42891;50.006;21.964;2023-12-14T14:41:20;51275.22;;;-146.02;82.16
57000;BME280;42891;50.006;21.964;2023-12-14T14:45:21;51257.19;;;-146.02;82.21
57000;BME280;42891;50.006;21.964;2023-12-14T14:49:21;51253.16;;;-146.02;82.52
57000;BME280;42891;50.006;21.964;2023-12-14T14:53:21;51245.16;;;-146.02;82.66
57000;BME280;42891;50.006;21.964;2023-12-14T14:57:22;51291.25;;;-146.02;83.24
57000;BME280;42891;50.006;21.964;2023-12-14T15:01:22;51273.22;;;-146.02;83.08
57000;BME280;42891;50.006;21.964;2023-12-14T15:05:23;51283.22;;;-146.02;83.31
57000;BME280;42891;50.006;21.964;2023-12-14T15:09:23;51237.13;;;-146.02;83.12
57000;BME280;42891;50.006;21.964;2023-12-14T15:13:24;51283.22;;;-146.02;82.96
57000;BME280;42891;50.006;21.964;2023-12-14T15:17:24;51249.16;;;-146.02;83.04
57000;BME280;42891;50.006;21.964;2023-12-14T15:21:25;51255.16;;;-146.02;82.63
57000;BME280;42891;50.006;21.964;2023-12-14T15:25:25;51245.16;;;-146.02;82.94
57000;BME280;42891;50.006;21.964;2023-12-14T15:29:25;51253.16;;;-146.02;82.71
57000;BME280;42891;50.006;21.964;2023-12-14T15:33:25;51271.19;;;-146.02;82.76
57000;BME280;42891;50.006;21.964;2023-12-14T15:37:26;51269.19;;;-146.02;82.58
57000;BME280;42891;50.006;21.964;2023-12-14T15:41:26;51251.16;;;-146.02;82.25
57000;BME280;42891;50.006;21.964;2023-12-14T15:45:26;51273.22;;;-146.02;82.03
57000;BME280;42891;50.006;21.964;2023-12-14T15:49:27;51245.16;;;-146.02;82.20
57000;BME280;42891;50.006;21.964;2023-12-14T15:53:28;51255.16;;;-146.02;81.85
57000;BME280;42891;50.006;21.964;2023-12-14T15:57:28;51273.22;;;-146.02;82.01
57000;BME280;42891;50.006;21.964;2023-12-14T16:01:29;51257.19;;;-146.02;82.04
57000;BME280;42891;50.006;21.964;2023-12-14T16:05:30;51265.19;;;-146.02;82.04
57000;BME280;42891;50.006;21.964;2023-12-14T16:09:30;51269.19;;;-146.02;82.42
57000;BME280;42891;50.006;21.964;2023-12-14T16:13:30;51225.13;;;-146.02;82.52
57000;BME280;42891;50.006;21.964;2023-12-14T16:17:31;51283.22;;;-146.02;82.70
57000;BME280;42891;50.006;21.964;2023-12-14T16:21:31;51241.16;;;-146.02;83.02
57000;BME280;42891;50.006;21.964;2023-12-14T16:25:32;51261.19;;;-146.02;83.20
57000;BME280;42891;50.006;21.964;2023-12-14T16:29:32;51277.22;;;-146.02;83.63
57000;BME280;42891;50.006;21.964;2023-12-14T16:33:37;51253.16;;;-146.02;84.26
57000;BME280;42891;50.006;21.964;2023-12-14T16:37:38;51259.19;;;-146.02;84.25
57000;BME280;42891;50.006;21.964;2023-12-14T16:41:39;51275.22;;;-146.02;84.88
57000;BME280;42891;50.006;21.964;2023-12-14T16:45:39;51249.16;;;-146.02;85.57
57000;BME280;42891;50.006;21.964;2023-12-14T16:49:39;51297.25;;;-146.02;85.64
57000;BME280;42891;50.006;21.964;2023-12-14T16:53:42;51253.16;;;-146.02;85.57
57000;BME280;42891;50.006;21.964;2023-12-14T16:57:43;51261.19;;;-146.02;85.54
57000;BME280;42891;50.006;21.964;2023-12-14T17:01:43;51279.22;;;-146.02;85.26
57000;BME280;42891;50.006;21.964;2023-12-14T17:05:43;51321.31;;;-146.02;85.34
57000;BME280;42891;50.006;21.964;2023-12-14T17:09:44;51293.25;;;-146.02;85.46
57000;BME280;42891;50.006;21.964;2023-12-14T17:13:44;51253.16;;;-146.02;85.74
57000;BME280;42891;50.006;21.964;2023-12-14T17:17:44;51277.22;;;-146.02;86.18
57000;BME280;42891;50.006;21.964;2023-12-14T17:21:44;51297.25;;;-146.02;86.65
57000;BME280;42891;50.006;21.964;2023-12-14T17:25:45;51243.16;;;-146.02;86.78
57000;BME280;42891;50.006;21.964;2023-12-14T17:29:45;51271.19;;;-146.02;86.81
57000;BME280;42891;50.006;21.964;2023-12-14T17:33:46;51255.16;;;-146.02;86.25
57000;BME280;42891;50.006;21.964;2023-12-14T17:37:47;51297.25;;;-146.02;85.73
57000;BME280;42891;50.006;21.964;2023-12-14T17:41:47;51257.19;;;-146.02;85.41
57000;BME280;42891;50.006;21.964;2023-12-14T17:45:48;51277.22;;;-146.02;85.07
57000;BME280;42891;50.006;21.964;2023-12-14T17:49:48;51251.16;;;-146.02;85.39
57000;BME280;42891;50.006;21.964;2023-12-14T17:53:48;51279.22;;;-146.02;85.50
57000;BME280;42891;50.006;21.964;2023-12-14T17:57:49;51275.22;;;-146.02;85.57
57000;BME280;42891;50.006;21.964;2023-12-14T18:01:49;51291.25;;;-146.02;85.52
57000;BME280;42891;50.006;21.964;2023-12-14T18:05:49;51279.22;;;-146.02;85.55
57000;BME280;42891;50.006;21.964;2023-12-14T18:09:50;51285.22;;;-146.02;85.30
57000;BME280;42891;50.006;21.964;2023-12-14T18:13:50;51287.22;;;-146.02;85.12
57000;BME280;42891;50.006;21.964;2023-12-14T18:17:50;51293.25;;;-146.02;84.93
57000;BME280;42891;50.006;21.964;2023-12-14T18:21:50;51251.16;;;-146.02;84.69
57000;BME280;42891;50.006;21.964;2023-12-14T18:25:51;51279.22;;;-146.02;84.53
57000;BME280;42891;50.006;21.964;2023-12-14T18:29:51;51269.19;;;-146.02;84.03
57000;BME280;42891;50.006;21.964;2023-12-14T18:33:51;51273.22;;;-146.02;84.17
57000;BME280;42891;50.006;21.964;2023-12-14T18:37:52;51297.25;;;-146.02;83.90
57000;BME280;42891;50.006;21.964;2023-12-14T18:41:52;51297.25;;;-146.02;83.82
57000;BME280;42891;50.006;21.964;2023-12-14T18:45:53;51259.19;;;-146.02;83.45
57000;BME280;42891;50.006;21.964;2023-12-14T18:49:53;51311.28;;;-146.02;83.44
57000;BME280;42891;50.006;21.964;2023-12-14T18:53:53;51257.19;;;-146.02;83.50
57000;BME280;42891;50.006;21.964;2023-12-14T18:57:54;51265.19;;;-146.02;83.40
57000;BME280;42891;50.006;21.964;2023-12-14T19:01:54;51281.22;;;-146.02;83.81
57000;BME280;42891;50.006;21.964;2023-12-14T19:05:54;51267.19;;;-146.02;83.57
57000;BME280;42891;50.006;21.964;2023-12-14T19:09:55;51257.19;;;-146.02;83.45
57000;BME280;42891;50.006;21.964;2023-12-14T19:13:55;51305.28;;;-146.02;83.25
57000;BME280;42891;50.006;21.964;2023-12-14T19:17:56;51267.19;;;-146.02;82.94
57000;BME280;42891;50.006;21.964;2023-12-14T19:21:57;51291.25;;;-146.02;82.66
57000;BME280;42891;50.006;21.964;2023-12-14T19:25:57;51281.22;;;-146.02;82.38
57000;BME280;42891;50.006;21.964;2023-12-14T19:29:58;51259.19;;;-146.02;82.23
57000;BME280;42891;50.006;21.964;2023-12-14T19:33:58;51255.16;;;-146.02;81.82
57000;BME280;42891;50.006;21.964;2023-12-14T19:37:59;51301.25;;;-146.02;81.39
57000;BME280;42891;50.006;21.964;2023-12-14T19:41:59;51257.19;;;-146.02;81.42
57000;BME280;42891;50.006;21.964;2023-12-14T19:46:00;51237.13;;;-146.02;81.38
57000;BME280;42891;50.006;21.964;2023-12-14T19:50:00;51273.22;;;-146.02;81.20
57000;BME280;42891;50.006;21.964;2023-12-14T19:54:00;51277.22;;;-146.02;80.96
57000;BME280;42891;50.006;21.964;2023-12-14T19:58:01;51275.22;;;-146.02;80.97
57000;BME280;42891;50.006;21.964;2023-12-14T20:02:01;51227.13;;;-146.02;80.96
57000;BME280;42891;50.006;21.964;2023-12-14T20:06:03;51249.16;;;-146.02;80.71
57000;BME280;42891;50.006;21.964;2023-12-14T20:10:04;51293.25;;;-146.02;81.09
57000;BME280;42891;50.006;21.964;2023-12-14T20:14:05;51259.19;;;-146.02;81.18
57000;BME280;42891;50.006;21.964;2023-12-14T20:18:06;51301.25;;;-146.02;81.00
57000;BME280;42891;50.006;21.964;2023-12-14T20:22:06;51277.22;;;-146.02;80.77
57000;BME280;42891;50.006;21.964;2023-12-14T20:26:07;51259.19;;;-146.02;80.37
57000;BME280;42891;50.006;21.964;2023-12-14T20:30:09;51243.16;;;-146.02;80.42